createdAt,value
2019-05-09T00:00:23.316Z,9.27
2019-05-09T00:01:23.510Z,9.25
2019-05-09T00:02:21.390Z,9.25
2019-05-09T00:03:21.368Z,9.21
2019-05-09T00:04:23.119Z,9.21
2019-05-09T00:05:23.311Z,9.20
2019-05-09T00:06:23.941Z,9.16
2019-05-09T00:07:23.326Z,9.15
2019-05-09T00:08:23.103Z,9.16
2019-05-09T00:09:23.198Z,9.15
2019-05-09T00:10:35.228Z,9.13
2019-05-09T00:11:24.462Z,9.12
2019-05-09T00:12:23.311Z,9.10
2019-05-09T00:13:23.555Z,9.12
2019-05-09T00:14:21.277Z,9.10
2019-05-09T00:15:21.300Z,9.12
2019-05-09T00:16:23.334Z,9.10
2019-05-09T00:17:23.187Z,9.09
2019-05-09T00:18:23.172Z,9.09
2019-05-09T00:19:21.187Z,9.06
2019-05-09T00:20:21.182Z,9.09
2019-05-09T00:21:21.189Z,9.06
2019-05-09T00:22:21.166Z,9.06
2019-05-09T00:23:28.986Z,9.05
2019-05-09T00:24:21.328Z,9.06
2019-05-09T00:25:23.494Z,9.05
2019-05-09T00:26:23.407Z,9.06
2019-05-09T00:27:23.094Z,9.06
2019-05-09T00:28:23.529Z,9.05
2019-05-09T00:29:21.091Z,9.05
2019-05-09T00:30:22.708Z,9.04
2019-05-09T00:31:21.118Z,9.02
2019-05-09T00:32:21.052Z,9.01
2019-05-09T00:33:23.459Z,9.02
2019-05-09T00:34:23.316Z,9.01
2019-05-09T00:35:23.239Z,9.02
2019-05-09T00:36:23.075Z,9.02
2019-05-09T00:37:21.011Z,9.01
2019-05-09T00:38:21.000Z,8.99
2019-05-09T00:39:23.584Z,8.99
2019-05-09T00:40:21.039Z,8.97
2019-05-09T00:41:20.963Z,8.96
2019-05-09T00:42:20.971Z,8.96
2019-05-09T00:43:23.678Z,8.93
2019-05-09T00:44:23.134Z,8.94
2019-05-09T00:45:21.031Z,8.91
2019-05-09T00:46:20.920Z,8.90
2019-05-09T00:47:21.360Z,8.88
2019-05-09T00:48:23.096Z,8.88
2019-05-09T00:49:20.900Z,8.87
2019-05-09T00:50:20.911Z,8.87
2019-05-09T00:51:23.128Z,8.87
2019-05-09T00:52:20.884Z,8.86
2019-05-09T00:53:23.116Z,8.83
2019-05-09T00:54:21.192Z,8.83
2019-05-09T00:55:20.810Z,8.79
2019-05-09T00:56:20.913Z,8.81
2019-05-09T00:57:22.982Z,8.79
2019-05-09T00:58:20.801Z,8.78
2019-05-09T00:59:20.803Z,8.76
2019-05-09T01:00:20.767Z,8.76
2019-05-09T01:01:20.790Z,8.75
2019-05-09T01:02:20.764Z,8.73
2019-05-09T01:03:23.335Z,8.71
2019-05-09T01:04:21.060Z,8.68
2019-05-09T01:05:20.787Z,8.66
2019-05-09T01:06:20.704Z,8.65
2019-05-09T01:07:20.704Z,8.62
2019-05-09T01:08:20.701Z,8.62
2019-05-09T01:09:20.669Z,8.58
2019-05-09T01:10:21.011Z,8.58
2019-05-09T01:11:23.977Z,8.57
2019-05-09T01:12:20.736Z,8.55
2019-05-09T01:13:23.102Z,8.55
2019-05-09T01:14:20.613Z,8.55
2019-05-09T01:15:20.631Z,8.54
2019-05-09T01:16:20.613Z,8.53
2019-05-09T01:17:20.647Z,8.53
2019-05-09T01:18:20.604Z,8.53
2019-05-09T01:19:20.589Z,8.53
2019-05-09T01:20:20.579Z,8.53
2019-05-09T01:21:20.524Z,8.51
2019-05-09T01:22:20.547Z,8.51
2019-05-09T01:23:20.489Z,8.50
2019-05-09T01:24:20.527Z,8.50
2019-05-09T01:25:20.498Z,8.50
2019-05-09T01:26:20.513Z,8.50
2019-05-09T01:27:20.520Z,8.48
2019-05-09T01:28:20.496Z,8.50
2019-05-09T01:29:20.469Z,8.50
2019-05-09T01:30:20.428Z,8.48
2019-05-09T01:31:20.492Z,8.48
2019-05-09T01:32:20.505Z,8.48
2019-05-09T01:33:20.458Z,8.47
2019-05-09T01:34:20.430Z,8.45
2019-05-09T01:35:20.398Z,8.45
2019-05-09T01:36:20.365Z,8.44
2019-05-09T01:37:20.386Z,8.45
2019-05-09T01:38:23.232Z,8.45
2019-05-09T01:39:20.328Z,8.47
2019-05-09T01:40:20.306Z,8.47
2019-05-09T01:41:28.016Z,8.48
2019-05-09T01:42:23.220Z,8.47
2019-05-09T01:43:20.698Z,8.45
2019-05-09T01:44:20.650Z,8.45
2019-05-09T01:45:20.362Z,8.45
2019-05-09T01:46:20.374Z,8.45
2019-05-09T01:47:20.300Z,8.45
2019-05-09T01:48:20.278Z,8.45
2019-05-09T01:49:20.246Z,8.47
2019-05-09T01:50:20.197Z,8.47
2019-05-09T01:51:20.248Z,8.47
2019-05-09T01:52:20.197Z,8.47
2019-05-09T01:53:20.173Z,8.47
2019-05-09T01:54:20.223Z,8.48
2019-05-09T01:55:20.166Z,8.48
2019-05-09T01:56:20.215Z,8.47
2019-05-09T01:57:20.179Z,8.47
2019-05-09T01:58:20.247Z,8.47
2019-05-09T01:59:20.116Z,8.47
2019-05-09T02:00:20.132Z,8.44
2019-05-09T02:01:20.160Z,8.44
2019-05-09T02:02:20.079Z,8.45
2019-05-09T02:03:20.077Z,8.44
2019-05-09T02:04:20.359Z,8.45
2019-05-09T02:05:20.108Z,8.44
2019-05-09T02:06:20.036Z,8.44
2019-05-09T02:07:20.006Z,8.44
2019-05-09T02:08:20.006Z,8.44
2019-05-09T02:09:20.051Z,8.44
2019-05-09T02:10:20.045Z,8.45
2019-05-09T02:11:19.969Z,8.44
2019-05-09T02:12:19.983Z,8.42
2019-05-09T02:13:19.991Z,8.42
2019-05-09T02:14:19.946Z,8.44
2019-05-09T02:15:20.039Z,8.44
2019-05-09T02:16:19.947Z,8.44
2019-05-09T02:17:19.915Z,8.44
2019-05-09T02:18:19.956Z,8.44
2019-05-09T02:19:19.913Z,8.44
2019-05-09T02:20:19.885Z,8.47
2019-05-09T02:21:19.875Z,8.44
2019-05-09T02:22:19.853Z,8.45
2019-05-09T02:23:19.856Z,8.45
2019-05-09T02:24:19.865Z,8.45
2019-05-09T02:25:19.912Z,8.47
2019-05-09T02:26:19.868Z,8.47
2019-05-09T02:27:19.985Z,8.47
2019-05-09T02:28:19.794Z,8.47
2019-05-09T02:29:19.767Z,8.47
2019-05-09T02:30:19.794Z,8.47
2019-05-09T02:31:19.746Z,8.45
2019-05-09T02:32:19.836Z,8.47
2019-05-09T02:33:19.733Z,8.45
2019-05-09T02:34:19.764Z,8.47
2019-05-09T02:35:20.684Z,8.47
2019-05-09T02:36:19.725Z,8.47
2019-05-09T02:37:19.705Z,8.45
2019-05-09T02:38:20.101Z,8.44
2019-05-09T02:39:19.730Z,8.44
2019-05-09T02:40:19.686Z,8.44
2019-05-09T02:41:20.091Z,8.44
2019-05-09T02:42:19.897Z,8.44
2019-05-09T02:43:19.894Z,8.45
2019-05-09T02:44:19.954Z,8.45
2019-05-09T02:45:19.627Z,8.45
2019-05-09T02:46:19.626Z,8.44
2019-05-09T02:47:19.653Z,8.45
2019-05-09T02:48:19.643Z,8.45
2019-05-09T02:49:19.854Z,8.45
2019-05-09T02:50:19.828Z,8.45
2019-05-09T02:51:19.592Z,8.47
2019-05-09T02:52:19.994Z,8.44
2019-05-09T02:53:19.525Z,8.44
2019-05-09T02:54:19.528Z,8.44
2019-05-09T02:55:19.503Z,8.47
2019-05-09T02:56:19.548Z,8.45
2019-05-09T02:57:19.487Z,8.45
2019-05-09T02:58:20.552Z,8.44
2019-05-09T02:59:19.498Z,8.44
2019-05-09T03:00:20.216Z,8.42
2019-05-09T03:01:19.503Z,8.40
2019-05-09T03:02:19.818Z,8.40
2019-05-09T03:03:19.975Z,8.39
2019-05-09T03:04:19.395Z,8.37
2019-05-09T03:05:19.795Z,8.36
2019-05-09T03:06:21.284Z,8.37
2019-05-09T03:07:19.398Z,8.35
2019-05-09T03:08:19.628Z,8.35
2019-05-09T03:09:19.409Z,8.36
2019-05-09T03:10:19.413Z,8.33
2019-05-09T03:11:19.346Z,8.33
2019-05-09T03:12:30.504Z,8.33
2019-05-09T03:13:20.310Z,8.33
2019-05-09T03:14:19.709Z,8.33
2019-05-09T03:15:19.288Z,8.30
2019-05-09T03:16:19.346Z,8.30
2019-05-09T03:17:19.313Z,8.30
2019-05-09T03:18:21.025Z,8.29
2019-05-09T03:19:19.726Z,8.28
2019-05-09T03:20:19.372Z,8.28
2019-05-09T03:21:19.391Z,8.26
2019-05-09T03:22:19.491Z,8.25
2019-05-09T03:23:19.506Z,8.26
2019-05-09T03:24:19.546Z,8.25
2019-05-09T03:25:19.344Z,8.25
2019-05-09T03:26:19.611Z,8.22
2019-05-09T03:27:19.258Z,8.21
2019-05-09T03:28:19.177Z,8.21
2019-05-09T03:29:19.289Z,8.21
2019-05-09T03:30:20.672Z,8.21
2019-05-09T03:31:19.783Z,8.20
2019-05-09T03:32:19.811Z,8.22
2019-05-09T03:33:20.148Z,8.22
2019-05-09T03:34:19.709Z,8.22
2019-05-09T03:35:19.127Z,8.22
2019-05-09T03:36:19.051Z,8.26
2019-05-09T03:37:19.048Z,8.26
2019-05-09T03:38:19.013Z,8.28
2019-05-09T03:39:19.772Z,8.30
2019-05-09T03:40:19.070Z,8.32
2019-05-09T03:41:19.063Z,8.30
2019-05-09T03:42:22.973Z,8.30
2019-05-09T03:43:20.050Z,8.32
2019-05-09T03:44:18.981Z,8.35
2019-05-09T03:45:19.008Z,8.33
2019-05-09T03:46:19.004Z,8.33
2019-05-09T03:47:18.990Z,8.36
2019-05-09T03:48:18.910Z,8.35
2019-05-09T03:49:19.027Z,8.37
2019-05-09T03:50:18.872Z,8.37
2019-05-09T03:51:18.932Z,8.39
2019-05-09T03:52:19.671Z,8.39
2019-05-09T03:53:18.942Z,8.37
2019-05-09T03:54:18.851Z,8.37
2019-05-09T03:55:18.858Z,8.36
2019-05-09T03:56:18.812Z,8.35
2019-05-09T03:57:18.953Z,8.32
2019-05-09T03:58:18.881Z,8.28
2019-05-09T03:59:18.784Z,8.26
2019-05-09T04:00:18.826Z,8.21
2019-05-09T04:01:18.846Z,8.20
2019-05-09T04:02:18.821Z,8.14
2019-05-09T04:03:20.371Z,8.10
2019-05-09T04:04:19.584Z,8.08
2019-05-09T04:05:18.762Z,8.04
2019-05-09T04:06:18.953Z,8.03
2019-05-09T04:07:19.628Z,8.02
2019-05-09T04:08:18.746Z,8.02
2019-05-09T04:09:18.730Z,7.99
2019-05-09T04:10:18.719Z,7.96
2019-05-09T04:11:18.696Z,7.97
2019-05-09T04:12:18.697Z,7.94
2019-05-09T04:13:18.678Z,7.94
2019-05-09T04:14:21.370Z,7.92
2019-05-09T04:15:19.171Z,7.90
2019-05-09T04:16:19.164Z,7.90
2019-05-09T04:17:18.608Z,7.90
2019-05-09T04:18:18.599Z,7.89
2019-05-09T04:19:18.656Z,7.87
2019-05-09T04:20:18.600Z,7.89
2019-05-09T04:21:18.539Z,7.89
2019-05-09T04:22:19.360Z,7.90
2019-05-09T04:23:18.808Z,7.92
2019-05-09T04:24:18.516Z,7.92
2019-05-09T04:25:18.623Z,7.93
2019-05-09T04:26:18.539Z,7.96
2019-05-09T04:27:18.767Z,7.96
2019-05-09T04:28:18.518Z,7.97
2019-05-09T04:29:18.573Z,8.00
2019-05-09T04:30:18.858Z,8.03
2019-05-09T04:31:19.212Z,8.03
2019-05-09T04:32:18.517Z,8.03
2019-05-09T04:33:18.497Z,8.03
2019-05-09T04:34:18.527Z,8.02
2019-05-09T04:35:18.481Z,8.02
2019-05-09T04:36:18.414Z,8.02
2019-05-09T04:37:18.401Z,8.02
2019-05-09T04:38:18.629Z,8.00
2019-05-09T04:39:23.367Z,8.00
2019-05-09T04:40:19.484Z,8.02
2019-05-09T04:41:23.684Z,8.02
2019-05-09T04:42:19.384Z,8.02
2019-05-09T04:43:26.650Z,8.02
2019-05-09T04:44:21.839Z,8.02
2019-05-09T04:45:18.378Z,8.00
2019-05-09T04:46:24.132Z,7.97
2019-05-09T04:47:19.267Z,7.96
2019-05-09T04:48:23.893Z,7.94
2019-05-09T04:49:19.377Z,7.93
2019-05-09T04:50:23.541Z,7.90
2019-05-09T04:51:19.216Z,7.89
2019-05-09T04:52:18.230Z,7.87
2019-05-09T04:53:18.360Z,7.85
2019-05-09T04:54:18.301Z,7.84
2019-05-09T04:55:18.318Z,7.84
2019-05-09T04:56:18.197Z,7.82
2019-05-09T04:57:18.402Z,7.84
2019-05-09T04:58:19.151Z,7.82
2019-05-09T04:59:18.199Z,7.84
2019-05-09T05:00:18.443Z,7.81
2019-05-09T05:01:19.796Z,7.79
2019-05-09T05:02:18.353Z,7.81
2019-05-09T05:03:18.453Z,7.79
2019-05-09T05:04:18.173Z,7.79
2019-05-09T05:05:18.815Z,7.79
2019-05-09T05:06:20.636Z,7.78
2019-05-09T05:07:18.280Z,7.78
2019-05-09T05:08:18.244Z,7.79
2019-05-09T05:09:21.183Z,7.82
2019-05-09T05:10:18.485Z,7.84
2019-05-09T05:11:18.100Z,7.85
2019-05-09T05:12:18.525Z,7.87
2019-05-09T05:13:26.360Z,7.89
2019-05-09T05:14:19.009Z,7.92
2019-05-09T05:15:20.433Z,7.94
2019-05-09T05:16:18.496Z,7.96
2019-05-09T05:17:18.253Z,7.94
2019-05-09T05:18:20.301Z,7.97
2019-05-09T05:19:17.934Z,7.97
2019-05-09T05:20:18.742Z,7.99
2019-05-09T05:21:19.996Z,7.99
2019-05-09T05:22:18.298Z,8.03
2019-05-09T05:23:18.323Z,8.03
2019-05-09T05:24:18.535Z,8.08
2019-05-09T05:25:17.982Z,8.11
2019-05-09T05:26:18.380Z,8.14
2019-05-09T05:27:18.898Z,8.15
2019-05-09T05:28:17.821Z,8.17
2019-05-09T05:29:18.074Z,8.20
2019-05-09T05:30:18.113Z,8.21
2019-05-09T05:31:18.193Z,8.26
2019-05-09T05:32:17.916Z,8.29
2019-05-09T05:33:18.475Z,8.32
2019-05-09T05:34:18.274Z,8.36
2019-05-09T05:35:18.433Z,8.39
2019-05-09T05:36:18.167Z,8.42
2019-05-09T05:37:17.749Z,8.48
2019-05-09T05:38:17.785Z,8.48
2019-05-09T05:39:17.936Z,8.50
2019-05-09T05:40:17.896Z,8.51
2019-05-09T05:41:18.284Z,8.54
2019-05-09T05:42:17.696Z,8.58
2019-05-09T05:43:17.660Z,8.63
2019-05-09T05:44:17.949Z,8.68
2019-05-09T05:45:18.284Z,8.72
2019-05-09T05:46:18.271Z,8.79
2019-05-09T05:47:18.099Z,8.84
2019-05-09T05:48:17.649Z,8.88
2019-05-09T05:49:18.654Z,8.91
2019-05-09T05:50:17.761Z,8.96
2019-05-09T05:51:18.429Z,8.99
2019-05-09T05:52:18.542Z,9.05
2019-05-09T05:53:18.293Z,9.09
2019-05-09T05:54:18.143Z,9.13
2019-05-09T05:55:18.407Z,9.16
2019-05-09T05:56:17.873Z,9.20
2019-05-09T05:57:17.792Z,9.25
2019-05-09T05:58:18.051Z,9.30
2019-05-09T05:59:17.927Z,9.34
2019-05-09T06:00:18.067Z,9.39
2019-05-09T06:01:18.745Z,9.45
2019-05-09T06:02:17.902Z,9.49
2019-05-09T06:03:17.875Z,9.53
2019-05-09T06:04:18.492Z,9.61
2019-05-09T06:05:18.657Z,9.66
2019-05-09T06:06:17.626Z,9.68
2019-05-09T06:07:18.450Z,9.76
2019-05-09T06:08:17.596Z,9.79
2019-05-09T06:09:19.016Z,9.85
2019-05-09T06:10:18.614Z,9.88
2019-05-09T06:11:17.823Z,9.93
2019-05-09T06:12:18.548Z,9.99
2019-05-09T06:13:18.317Z,10.04
2019-05-09T06:14:18.387Z,10.12
2019-05-09T06:15:18.268Z,10.17
2019-05-09T06:16:18.225Z,10.21
2019-05-09T06:17:18.136Z,10.26
2019-05-09T06:18:18.419Z,10.28
2019-05-09T06:19:17.905Z,10.33
2019-05-09T06:20:17.856Z,10.39
2019-05-09T06:21:17.800Z,10.42
2019-05-09T06:22:18.349Z,10.44
2019-05-09T06:23:17.692Z,10.51
2019-05-09T06:24:17.850Z,10.55
2019-05-09T06:25:20.975Z,10.59
2019-05-09T06:26:18.547Z,10.63
2019-05-09T06:27:18.290Z,10.65
2019-05-09T06:28:18.249Z,10.70
2019-05-09T06:29:17.880Z,10.74
2019-05-09T06:30:20.067Z,10.76
2019-05-09T06:31:17.901Z,10.81
2019-05-09T06:32:18.853Z,10.81
2019-05-09T06:33:18.114Z,10.86
2019-05-09T06:34:18.793Z,10.88
2019-05-09T06:35:17.597Z,10.91
2019-05-09T06:36:18.863Z,10.95
2019-05-09T06:37:18.321Z,10.95
2019-05-09T06:38:18.685Z,10.99
2019-05-09T06:39:17.976Z,10.98
2019-05-09T06:40:17.748Z,11.01
2019-05-09T06:41:17.654Z,11.02
2019-05-09T06:42:18.151Z,11.03
2019-05-09T06:43:18.289Z,11.06
2019-05-09T06:44:20.315Z,11.06
2019-05-09T06:45:17.950Z,11.07
2019-05-09T06:46:18.226Z,11.09
2019-05-09T06:47:18.525Z,11.10
2019-05-09T06:48:18.060Z,11.13
2019-05-09T06:49:27.623Z,11.14
2019-05-09T06:50:18.537Z,11.13
2019-05-09T06:51:20.932Z,11.16
2019-05-09T06:52:17.466Z,11.17
2019-05-09T06:53:18.115Z,11.13
2019-05-09T06:54:17.480Z,11.16
2019-05-09T06:55:17.405Z,11.19
2019-05-09T06:56:17.801Z,11.20
2019-05-09T06:57:18.695Z,11.21
2019-05-09T06:58:18.387Z,11.24
2019-05-09T06:59:18.944Z,11.24
2019-05-09T07:00:17.821Z,11.27
2019-05-09T07:01:18.278Z,11.29
2019-05-09T07:02:17.641Z,11.32
2019-05-09T07:03:18.495Z,11.36
2019-05-09T07:04:18.330Z,11.39
2019-05-09T07:05:17.946Z,11.43
2019-05-09T07:06:17.788Z,11.44
2019-05-09T07:07:17.635Z,11.44
2019-05-09T07:08:18.328Z,11.46
2019-05-09T07:09:17.455Z,11.50
2019-05-09T07:10:17.865Z,11.54
2019-05-09T07:11:19.013Z,11.59
2019-05-09T07:12:18.093Z,11.65
2019-05-09T07:13:18.277Z,11.67
2019-05-09T07:14:26.714Z,11.68
2019-05-09T07:15:17.853Z,11.68
2019-05-09T07:16:18.663Z,11.74
2019-05-09T07:17:18.300Z,11.74
2019-05-09T07:18:18.406Z,11.77
2019-05-09T07:19:17.463Z,11.82
2019-05-09T07:20:18.239Z,11.85
2019-05-09T07:21:18.780Z,11.87
2019-05-09T07:22:18.399Z,11.94
2019-05-09T07:23:17.736Z,11.99
2019-05-09T07:24:18.631Z,12.06
2019-05-09T07:25:18.643Z,12.11
2019-05-09T07:26:17.716Z,12.12
2019-05-09T07:27:17.925Z,12.13
2019-05-09T07:28:17.969Z,12.16
2019-05-09T07:29:17.856Z,12.16
2019-05-09T07:30:17.955Z,12.19
2019-05-09T07:31:17.718Z,12.21
2019-05-09T07:32:18.210Z,12.26
2019-05-09T07:33:18.732Z,12.24
2019-05-09T07:34:18.470Z,12.27
2019-05-09T07:35:18.634Z,12.29
2019-05-09T07:36:18.830Z,12.26
2019-05-09T07:37:18.493Z,12.26
2019-05-09T07:38:17.780Z,12.23
2019-05-09T07:39:17.710Z,12.23
2019-05-09T07:40:18.079Z,12.21
2019-05-09T07:41:17.841Z,12.26
2019-05-09T07:42:18.039Z,12.30
2019-05-09T07:43:18.059Z,12.33
2019-05-09T07:44:18.285Z,12.37
2019-05-09T07:45:17.910Z,12.39
2019-05-09T07:46:52.518Z,12.41
2019-05-09T07:47:17.770Z,12.45
2019-05-09T07:48:18.120Z,12.48
2019-05-09T07:49:17.569Z,12.54
2019-05-09T07:50:18.943Z,12.56
2019-05-09T07:51:18.090Z,12.59
2019-05-09T07:52:18.641Z,12.57
2019-05-09T07:53:17.680Z,12.56
2019-05-09T07:54:23.300Z,12.56
2019-05-09T07:55:18.021Z,12.54
2019-05-09T07:56:18.495Z,12.54
2019-05-09T07:57:18.116Z,12.54
2019-05-09T07:58:18.706Z,12.56
2019-05-09T07:59:18.069Z,12.59
2019-05-09T08:00:18.271Z,12.63
2019-05-09T08:01:19.118Z,12.66
2019-05-09T08:02:17.631Z,12.66
2019-05-09T08:03:18.123Z,12.69
2019-05-09T08:04:18.286Z,12.74
2019-05-09T08:05:17.422Z,12.77
2019-05-09T08:06:18.394Z,12.79
2019-05-09T08:07:17.556Z,12.82
2019-05-09T08:08:18.473Z,12.87
2019-05-09T08:09:18.494Z,12.92
2019-05-09T08:10:17.599Z,12.93
2019-05-09T08:11:18.016Z,12.95
2019-05-09T08:12:17.984Z,12.99
2019-05-09T08:13:18.183Z,13.00
2019-05-09T08:14:17.711Z,13.02
2019-05-09T08:15:17.437Z,13.02
2019-05-09T08:16:18.428Z,13.06
2019-05-09T08:17:18.089Z,13.15
2019-05-09T08:18:17.455Z,13.24
2019-05-09T08:19:18.094Z,13.33
2019-05-09T08:20:17.542Z,13.44
2019-05-09T08:21:18.106Z,13.55
2019-05-09T08:22:24.784Z,13.62
2019-05-09T08:23:18.046Z,13.61
2019-05-09T08:24:18.174Z,13.63
2019-05-09T08:25:18.208Z,13.67
2019-05-09T08:26:15.947Z,13.71
2019-05-09T08:27:17.477Z,13.76
2019-05-09T08:28:17.668Z,13.83
2019-05-09T08:29:17.816Z,13.81
2019-05-09T08:30:18.006Z,13.83
2019-05-09T08:31:17.832Z,13.83
2019-05-09T08:32:48.003Z,13.87
2019-05-09T08:33:18.417Z,13.88
2019-05-09T08:34:16.010Z,13.95
2019-05-09T08:35:18.172Z,13.98
2019-05-09T08:36:20.178Z,14.10
2019-05-09T08:37:17.572Z,14.24
2019-05-09T08:38:19.601Z,14.32
2019-05-09T08:39:18.412Z,14.42
2019-05-09T08:40:21.104Z,14.49
2019-05-09T08:41:18.686Z,14.54
2019-05-09T08:42:17.974Z,14.61
2019-05-09T08:43:17.883Z,14.75
2019-05-09T08:44:18.401Z,14.86
2019-05-09T08:45:27.873Z,14.83
2019-05-09T08:46:18.157Z,14.90
2019-05-09T08:47:18.336Z,14.94
2019-05-09T08:48:16.318Z,15.03
2019-05-09T08:49:15.602Z,15.06
2019-05-09T08:50:17.606Z,15.11
2019-05-09T08:51:17.877Z,15.11
2019-05-09T08:52:17.202Z,15.01
2019-05-09T08:53:15.564Z,14.93
2019-05-09T08:54:18.262Z,14.91
2019-05-09T08:55:17.442Z,14.93
2019-05-09T08:56:17.662Z,14.95
2019-05-09T08:57:18.039Z,14.99
2019-05-09T08:58:19.251Z,15.05
2019-05-09T08:59:15.548Z,15.09
2019-05-09T09:00:15.478Z,15.11
2019-05-09T09:01:27.456Z,15.23
2019-05-09T09:02:21.906Z,15.31
2019-05-09T09:03:18.501Z,15.41
2019-05-09T09:04:15.476Z,15.48
2019-05-09T09:05:15.417Z,15.54
2019-05-09T09:06:15.439Z,15.68
2019-05-09T09:07:18.723Z,15.79
2019-05-09T09:08:15.449Z,15.92
2019-05-09T09:09:17.879Z,16.04
2019-05-09T09:10:17.884Z,16.11
2019-05-09T09:11:15.472Z,16.20
2019-05-09T09:12:29.460Z,16.14
2019-05-09T09:13:17.502Z,16.12
2019-05-09T09:14:15.351Z,16.25
2019-05-09T09:15:17.812Z,16.31
2019-05-09T09:16:21.439Z,16.34
2019-05-09T09:17:18.483Z,16.30
2019-05-09T09:18:17.717Z,16.18
2019-05-09T09:19:17.797Z,16.12
2019-05-09T09:20:15.357Z,16.20
2019-05-09T09:21:18.143Z,16.31
2019-05-09T09:22:17.812Z,16.40
2019-05-09T09:23:17.860Z,16.56
2019-05-09T09:24:17.584Z,16.59
2019-05-09T09:25:15.291Z,16.50
2019-05-09T09:26:15.187Z,16.41
2019-05-09T09:27:15.167Z,16.20
2019-05-09T09:28:15.583Z,16.06
2019-05-09T09:29:15.162Z,15.86
2019-05-09T09:30:21.654Z,15.74
2019-05-09T09:31:18.042Z,15.61
2019-05-09T09:32:18.678Z,15.52
2019-05-09T09:33:17.612Z,15.42
2019-05-09T09:34:15.151Z,15.36
2019-05-09T09:35:15.097Z,15.28
2019-05-09T09:36:17.834Z,15.20
2019-05-09T09:37:18.315Z,15.11
2019-05-09T09:38:15.095Z,15.01
2019-05-09T09:39:15.072Z,14.99
2019-05-09T09:40:17.531Z,14.94
2019-05-09T09:41:15.191Z,14.95
2019-05-09T09:42:15.431Z,14.99
2019-05-09T09:43:17.457Z,15.05
2019-05-09T09:44:15.119Z,15.11
2019-05-09T09:45:15.032Z,15.19
2019-05-09T09:46:15.023Z,15.24
2019-05-09T09:47:20.585Z,15.27
2019-05-09T09:48:18.123Z,15.23
2019-05-09T09:49:14.930Z,15.23
2019-05-09T09:50:17.525Z,15.21
2019-05-09T09:51:15.025Z,15.28
2019-05-09T09:52:14.936Z,15.27
2019-05-09T09:53:14.915Z,15.26
2019-05-09T09:54:14.910Z,15.20
2019-05-09T09:55:14.909Z,15.11
2019-05-09T09:56:17.661Z,15.19
2019-05-09T09:57:14.903Z,15.26
2019-05-09T09:58:14.822Z,15.31
2019-05-09T09:59:15.165Z,15.31
2019-05-09T10:00:14.796Z,15.41
2019-05-09T10:01:14.946Z,15.51
2019-05-09T10:02:15.302Z,15.56
2019-05-09T10:03:14.764Z,15.66
2019-05-09T10:04:22.833Z,15.72
2019-05-09T10:05:18.157Z,15.79
2019-05-09T10:06:14.813Z,15.88
2019-05-09T10:07:14.715Z,15.92
2019-05-09T10:08:14.825Z,16.03
2019-05-09T10:09:14.780Z,16.06
2019-05-09T10:10:14.694Z,15.94
2019-05-09T10:11:14.775Z,15.94
2019-05-09T10:12:14.658Z,15.89
2019-05-09T10:13:14.662Z,15.84
2019-05-09T10:14:14.645Z,15.78
2019-05-09T10:15:15.591Z,15.75
2019-05-09T10:16:28.303Z,15.75
2019-05-09T10:17:17.615Z,15.78
2019-05-09T10:18:14.785Z,15.75
2019-05-09T10:19:14.622Z,15.70
2019-05-09T10:20:14.564Z,15.64
2019-05-09T10:21:14.650Z,15.60
2019-05-09T10:22:14.524Z,15.57
2019-05-09T10:23:18.824Z,15.56
2019-05-09T10:24:17.525Z,15.56
2019-05-09T10:25:14.534Z,15.63
2019-05-09T10:26:14.563Z,15.74
2019-05-09T10:27:14.473Z,15.84
2019-05-09T10:28:14.486Z,15.96
2019-05-09T10:29:14.585Z,16.01
2019-05-09T10:30:14.508Z,16.11
2019-05-09T10:31:14.604Z,16.18
2019-05-09T10:32:14.578Z,16.30
2019-05-09T10:33:14.510Z,16.42
2019-05-09T10:34:14.426Z,16.53
2019-05-09T10:35:17.707Z,16.63
2019-05-09T10:36:14.446Z,16.71
2019-05-09T10:37:14.390Z,16.74
2019-05-09T10:38:14.434Z,16.77
2019-05-09T10:39:14.536Z,16.83
2019-05-09T10:40:15.027Z,16.89
2019-05-09T10:41:14.418Z,16.85
2019-05-09T10:42:14.406Z,16.80
2019-05-09T10:43:14.454Z,16.83
2019-05-09T10:44:14.364Z,16.77
2019-05-09T10:45:14.355Z,16.78
2019-05-09T10:46:18.225Z,16.78
2019-05-09T10:47:14.317Z,16.78
2019-05-09T10:48:14.346Z,16.70
2019-05-09T10:49:14.588Z,16.62
2019-05-09T10:50:14.249Z,16.52
2019-05-09T10:51:14.297Z,16.37
2019-05-09T10:52:14.777Z,16.33
2019-05-09T10:53:14.205Z,16.27
2019-05-09T10:54:14.538Z,16.12
2019-05-09T10:55:14.202Z,16.03
2019-05-09T10:56:15.115Z,15.93
2019-05-09T10:57:14.248Z,15.82
2019-05-09T10:58:14.140Z,15.74
2019-05-09T10:59:14.238Z,15.67
2019-05-09T11:00:14.116Z,15.64
2019-05-09T11:01:14.107Z,15.63
2019-05-09T11:02:14.459Z,15.66
2019-05-09T11:03:14.286Z,15.68
2019-05-09T11:04:14.084Z,15.64
2019-05-09T11:05:14.075Z,15.67
2019-05-09T11:06:14.056Z,15.70
2019-05-09T11:07:14.080Z,15.75
2019-05-09T11:08:14.060Z,15.82
2019-05-09T11:09:14.076Z,15.88
2019-05-09T11:10:25.671Z,15.89
2019-05-09T11:11:15.060Z,15.79
2019-05-09T11:12:14.010Z,15.74
2019-05-09T11:13:14.072Z,15.66
2019-05-09T11:14:31.658Z,15.54
2019-05-09T11:15:14.967Z,15.35
2019-05-09T11:16:13.976Z,15.27
2019-05-09T11:17:18.479Z,15.30
2019-05-09T11:18:14.944Z,15.33
2019-05-09T11:19:13.906Z,15.41
2019-05-09T11:20:13.888Z,15.48
2019-05-09T11:21:14.366Z,15.39
2019-05-09T11:22:14.004Z,15.12
2019-05-09T11:23:13.872Z,15.01
2019-05-09T11:24:13.855Z,14.94
2019-05-09T11:25:13.845Z,14.86
2019-05-09T11:26:13.866Z,14.80
2019-05-09T11:27:13.862Z,14.78
2019-05-09T11:28:15.150Z,14.64
2019-05-09T11:29:13.837Z,14.53
2019-05-09T11:30:13.800Z,14.49
2019-05-09T11:31:14.012Z,14.43
2019-05-09T11:32:13.809Z,14.35
2019-05-09T11:33:13.788Z,14.34
2019-05-09T11:34:13.740Z,14.39
2019-05-09T11:35:13.745Z,14.49
2019-05-09T11:36:14.857Z,14.60
2019-05-09T11:37:13.737Z,14.64
2019-05-09T11:38:13.908Z,14.65
2019-05-09T11:39:13.725Z,14.75
2019-05-09T11:40:13.721Z,14.86
2019-05-09T11:41:14.618Z,14.86
2019-05-09T11:42:13.777Z,14.81
2019-05-09T11:43:13.704Z,14.65
2019-05-09T11:44:13.676Z,14.50
2019-05-09T11:45:13.640Z,14.38
2019-05-09T11:46:13.609Z,14.17
2019-05-09T11:47:30.825Z,14.06
2019-05-09T11:48:14.888Z,14.01
2019-05-09T11:49:13.651Z,14.01
2019-05-09T11:50:13.618Z,14.02
2019-05-09T11:51:13.577Z,14.02
2019-05-09T11:52:13.570Z,14.02
2019-05-09T11:53:13.587Z,14.13
2019-05-09T11:54:16.415Z,14.31
2019-05-09T11:55:28.547Z,14.50
2019-05-09T11:56:14.520Z,14.67
2019-05-09T11:57:13.504Z,14.83
2019-05-09T11:58:13.506Z,14.95
2019-05-09T11:59:13.519Z,15.01
2019-05-09T12:00:13.479Z,14.99
2019-05-09T12:01:13.439Z,15.02
2019-05-09T12:02:13.521Z,15.05
2019-05-09T12:03:13.544Z,15.02
2019-05-09T12:04:13.439Z,14.98
2019-05-09T12:05:13.433Z,14.98
2019-05-09T12:06:15.998Z,14.94
2019-05-09T12:07:13.379Z,14.94
2019-05-09T12:08:13.397Z,14.94
2019-05-09T12:09:14.827Z,14.94
2019-05-09T12:10:13.402Z,14.91
2019-05-09T12:11:13.373Z,14.88
2019-05-09T12:12:13.368Z,14.88
2019-05-09T12:13:13.318Z,14.88
2019-05-09T12:14:13.361Z,14.90
2019-05-09T12:15:13.325Z,14.91
2019-05-09T12:16:13.283Z,14.98
2019-05-09T12:17:13.300Z,15.01
2019-05-09T12:18:13.310Z,15.02
2019-05-09T12:19:13.259Z,15.08
2019-05-09T12:20:13.778Z,15.12
2019-05-09T12:21:13.219Z,15.19
2019-05-09T12:22:13.233Z,15.24
2019-05-09T12:23:13.247Z,15.31
2019-05-09T12:24:13.213Z,15.41
2019-05-09T12:25:13.201Z,15.48
2019-05-09T12:26:13.255Z,15.51
2019-05-09T12:27:13.167Z,15.57
2019-05-09T12:28:13.203Z,15.63
2019-05-09T12:29:13.141Z,15.66
2019-05-09T12:30:13.128Z,15.68
2019-05-09T12:31:13.175Z,15.68
2019-05-09T12:32:13.139Z,15.75
2019-05-09T12:33:13.109Z,15.78
2019-05-09T12:34:13.116Z,15.84
2019-05-09T12:35:13.127Z,15.85
2019-05-09T12:36:13.070Z,15.88
2019-05-09T12:37:13.065Z,15.92
2019-05-09T12:38:13.077Z,15.93
2019-05-09T12:39:13.030Z,15.99
2019-05-09T12:40:13.117Z,16.06
2019-05-09T12:41:13.023Z,16.09
2019-05-09T12:42:13.020Z,16.09
2019-05-09T12:43:12.992Z,16.14
2019-05-09T12:44:13.108Z,16.23
2019-05-09T12:45:12.998Z,16.31
2019-05-09T12:46:13.198Z,16.44
2019-05-09T12:47:12.931Z,16.63
2019-05-09T12:48:15.571Z,16.75
2019-05-09T12:49:13.023Z,16.80
2019-05-09T12:50:13.569Z,16.90
2019-05-09T12:51:13.041Z,16.98
2019-05-09T12:52:12.929Z,17.11
2019-05-09T12:53:12.909Z,17.14
2019-05-09T12:54:12.891Z,17.15
2019-05-09T12:55:13.599Z,17.13
2019-05-09T12:56:12.854Z,17.22
2019-05-09T12:57:13.627Z,17.29
2019-05-09T12:58:12.831Z,17.38
2019-05-09T12:59:12.844Z,17.51
2019-05-09T13:00:12.922Z,17.54
2019-05-09T13:01:13.673Z,17.59
2019-05-09T13:02:12.813Z,17.51
2019-05-09T13:03:12.799Z,17.46
2019-05-09T13:04:12.768Z,17.48